createdAt,value
2018-04-18T00:02:23.368Z,13.60
2018-04-18T00:04:51.121Z,13.60
2018-04-18T00:07:18.638Z,13.60
2018-04-18T00:09:46.154Z,13.50
2018-04-18T00:12:13.679Z,13.50
2018-04-18T00:14:41.550Z,13.40
2018-04-18T00:17:09.054Z,13.30
2018-04-18T00:19:36.760Z,13.40
2018-04-18T00:22:04.253Z,13.40
2018-04-18T00:24:32.005Z,13.50
2018-04-18T00:26:59.765Z,13.50
2018-04-18T00:29:27.269Z,13.50
2018-04-18T00:31:54.782Z,13.50
2018-04-18T00:34:22.550Z,13.50
2018-04-18T00:36:50.182Z,13.50
2018-04-18T00:39:17.694Z,13.40
2018-04-18T00:41:45.434Z,13.30
2018-04-18T00:44:12.963Z,13.30
2018-04-18T00:46:40.475Z,13.30
2018-04-18T00:49:08.110Z,13.20
2018-04-18T00:51:35.866Z,13.20
2018-04-18T00:54:03.382Z,13.20
2018-04-18T00:56:31.709Z,13.30
2018-04-18T00:58:59.457Z,13.20
2018-04-18T01:01:27.222Z,13.10
2018-04-18T01:03:54.739Z,13.10
2018-04-18T01:06:22.243Z,13.10
2018-04-18T01:08:49.764Z,13.10
2018-04-18T01:11:17.372Z,13.10
2018-04-18T01:13:44.870Z,13.10
2018-04-18T01:16:12.589Z,13.10
2018-04-18T01:18:40.084Z,13.00
2018-04-18T01:21:07.599Z,12.90
2018-04-18T01:23:35.236Z,13.00
2018-04-18T01:26:02.741Z,13.00
2018-04-18T01:28:30.483Z,12.90
2018-04-18T01:30:58.249Z,12.90
2018-04-18T01:33:25.760Z,13.00
2018-04-18T01:35:53.269Z,12.90
2018-04-18T01:38:20.774Z,13.00
2018-04-18T01:40:48.379Z,12.90
2018-04-18T01:43:16.390Z,12.90
2018-04-18T01:45:43.921Z,12.90
2018-04-18T01:48:11.433Z,12.80
2018-04-18T01:50:39.011Z,12.70
2018-04-18T01:53:06.545Z,12.60
2018-04-18T01:55:34.347Z,12.60
2018-04-18T01:58:01.870Z,12.60
2018-04-18T02:00:29.387Z,12.60
2018-04-18T02:02:56.978Z,12.60
2018-04-18T02:05:24.490Z,12.70
2018-04-18T02:07:52.005Z,12.70
2018-04-18T02:10:19.526Z,12.70
2018-04-18T02:12:48.066Z,12.70
2018-04-18T02:15:15.712Z,12.70
2018-04-18T02:17:43.297Z,12.70
2018-04-18T02:20:11.050Z,12.60
2018-04-18T02:22:38.567Z,12.60
2018-04-18T02:25:06.066Z,12.50
2018-04-18T02:27:33.575Z,12.50
2018-04-18T02:30:01.880Z,12.40
2018-04-18T02:32:29.722Z,12.40
2018-04-18T02:34:58.260Z,12.30
2018-04-18T02:37:25.763Z,12.20
2018-04-18T02:39:53.274Z,12.30
2018-04-18T02:42:20.786Z,12.30
2018-04-18T02:44:48.365Z,12.30
2018-04-18T02:47:16.808Z,12.40
2018-04-18T02:49:44.301Z,12.30
2018-04-18T02:52:11.811Z,12.30
2018-04-18T02:54:40.087Z,12.30
2018-04-18T02:57:07.747Z,12.30
2018-04-18T02:59:35.258Z,12.30
2018-04-18T03:02:02.781Z,12.30
2018-04-18T03:04:30.470Z,12.20
2018-04-18T03:06:58.257Z,12.10
2018-04-18T03:09:25.774Z,12.10
2018-04-18T03:11:53.470Z,12.20
2018-04-18T03:14:21.826Z,12.10
2018-04-18T03:16:49.334Z,12.00
2018-04-18T03:19:16.843Z,12.10
2018-04-18T03:21:44.357Z,12.10
2018-04-18T03:24:11.917Z,12.10
2018-04-18T03:26:39.456Z,12.20
2018-04-18T03:29:06.970Z,12.20
2018-04-18T03:31:34.482Z,12.10
2018-04-18T03:34:02.109Z,12.00
2018-04-18T03:36:29.886Z,12.00
2018-04-18T03:38:57.394Z,11.90
2018-04-18T03:41:25.141Z,12.00
2018-04-18T03:43:52.883Z,11.90
2018-04-18T03:46:21.908Z,11.80
2018-04-18T03:48:49.903Z,11.80
2018-04-18T03:51:18.521Z,11.80
2018-04-18T03:53:46.029Z,11.90
2018-04-18T03:56:13.848Z,11.90
2018-04-18T03:58:41.365Z,12.00
2018-04-18T04:01:09.069Z,11.90
2018-04-18T04:03:36.822Z,11.80
2018-04-18T04:06:04.346Z,11.80
2018-04-18T04:08:32.044Z,11.80
2018-04-18T04:10:59.775Z,11.90
2018-04-18T04:13:27.286Z,11.90
2018-04-18T04:15:54.810Z,11.90
2018-04-18T04:21:37.853Z,12.00
2018-04-18T04:24:17.170Z,11.90
2018-04-18T04:26:44.757Z,11.90
2018-04-18T04:29:12.694Z,11.90
2018-04-18T04:31:40.286Z,11.90
2018-04-18T04:34:07.802Z,11.90
2018-04-18T04:36:35.500Z,11.90
2018-04-18T04:39:03.254Z,11.90
2018-04-18T04:41:31.027Z,11.90
2018-04-18T04:43:58.545Z,11.90
2018-04-18T04:46:26.054Z,11.90
2018-04-18T04:48:53.570Z,11.80
2018-04-18T04:51:21.891Z,11.90
2018-04-18T04:53:49.538Z,11.90
2018-04-18T04:56:17.302Z,11.90
2018-04-18T04:58:44.808Z,11.90
2018-04-18T05:01:12.454Z,11.90
2018-04-18T05:03:40.886Z,12.00
2018-04-18T05:06:08.387Z,12.00
2018-04-18T05:08:35.907Z,12.00
2018-04-18T05:11:03.914Z,12.00
2018-04-18T05:13:31.435Z,12.00
2018-04-18T05:15:59.111Z,12.00
2018-04-18T05:18:26.619Z,11.90
2018-04-18T05:20:54.326Z,12.00
2018-04-18T05:23:22.318Z,12.00
2018-04-18T05:25:49.854Z,12.00
2018-04-18T05:28:17.414Z,11.90
2018-04-18T05:30:45.046Z,12.00
2018-04-18T05:33:12.557Z,12.00
2018-04-18T05:35:40.066Z,12.10
2018-04-18T05:38:07.586Z,12.20
2018-04-18T05:40:35.214Z,12.20
2018-04-18T05:43:03.616Z,12.30
2018-04-18T05:45:31.770Z,12.40
2018-04-18T05:47:59.391Z,12.50
2018-04-18T05:50:26.901Z,12.50
2018-04-18T05:52:54.434Z,12.70
2018-04-18T05:55:22.115Z,12.70
2018-04-18T05:57:49.868Z,12.80
2018-04-18T06:00:17.394Z,12.80
2018-04-18T06:02:44.961Z,12.90
2018-04-18T06:05:12.494Z,13.10
2018-04-18T06:07:40.297Z,13.10
2018-04-18T06:10:07.972Z,13.30
2018-04-18T06:12:35.490Z,13.30
2018-04-18T06:15:03.040Z,13.50
2018-04-18T06:17:31.166Z,13.70
2018-04-18T06:19:58.697Z,13.70
2018-04-18T06:22:26.242Z,13.90
2018-04-18T06:24:54.029Z,14.00
2018-04-18T06:27:21.562Z,14.10
2018-04-18T06:29:49.061Z,14.30
2018-04-18T06:32:16.706Z,14.30
2018-04-18T06:34:44.355Z,14.40
2018-04-18T06:37:11.904Z,14.60
2018-04-18T06:39:39.435Z,14.70
2018-04-18T06:42:07.152Z,14.70
2018-04-18T06:44:34.674Z,14.60
2018-04-18T06:47:02.373Z,14.70
2018-04-18T06:49:30.130Z,14.60
2018-04-18T06:51:57.766Z,14.70
2018-04-18T06:54:25.329Z,14.80
2018-04-18T06:56:52.798Z,14.90
2018-04-18T06:59:20.307Z,15.00
2018-04-18T07:01:47.837Z,15.10
2018-04-18T07:04:15.418Z,15.20
2018-04-18T07:06:42.927Z,15.20
2018-04-18T07:09:10.442Z,15.30
2018-04-18T07:11:38.172Z,15.40
2018-04-18T07:14:05.922Z,15.60
2018-04-18T07:16:33.698Z,15.70
2018-04-18T07:19:01.246Z,15.70
2018-04-18T07:21:29.086Z,15.80
2018-04-18T07:23:56.670Z,15.90
2018-04-18T07:26:24.433Z,16.00
2018-04-18T07:28:51.973Z,16.10
2018-04-18T07:31:19.654Z,16.20
2018-04-18T07:33:47.799Z,16.20
2018-04-18T07:36:15.510Z,16.30
2018-04-18T07:38:43.022Z,16.50
2018-04-18T07:41:10.694Z,16.50
2018-04-18T07:43:38.477Z,16.40
2018-04-18T07:46:05.997Z,16.50
2018-04-18T07:48:33.690Z,16.60
2018-04-18T07:51:01.216Z,16.80
2018-04-18T07:53:28.726Z,16.80
2018-04-18T07:55:56.417Z,16.90
2018-04-18T07:58:24.110Z,17.00
2018-04-18T08:00:51.627Z,17.00
2018-04-18T08:03:19.142Z,17.10
2018-04-18T08:05:46.807Z,17.20
2018-04-18T08:08:14.318Z,17.40
2018-04-18T08:10:42.027Z,17.40
2018-04-18T08:13:09.555Z,17.50
2018-04-18T08:15:37.058Z,17.60
2018-04-18T08:18:04.567Z,17.80
2018-04-18T08:20:32.084Z,17.80
2018-04-18T08:22:59.794Z,17.90
2018-04-18T08:25:27.393Z,17.90
2018-04-18T08:27:56.698Z,18.00
2018-04-18T08:30:24.224Z,18.00
2018-04-18T08:32:52.078Z,18.10
2018-04-18T08:35:19.666Z,18.30
2018-04-18T08:37:47.170Z,18.30
2018-04-18T08:40:14.679Z,18.30
2018-04-18T08:42:42.228Z,18.40
2018-04-18T08:45:09.810Z,18.40
2018-04-18T08:47:37.558Z,18.40
2018-04-18T08:50:05.323Z,18.50
2018-04-18T08:52:33.051Z,18.50
2018-04-18T08:55:00.772Z,18.50
2018-04-18T08:57:28.308Z,18.60
2018-04-18T08:59:55.819Z,18.70
2018-04-18T09:02:23.329Z,18.80
2018-04-18T09:04:50.837Z,18.80
2018-04-18T09:07:18.449Z,18.70
2018-04-18T09:09:46.230Z,18.70
2018-04-18T09:12:13.962Z,18.80
2018-04-18T09:14:41.475Z,18.90
2018-04-18T09:17:08.977Z,18.90
2018-04-18T09:19:36.641Z,18.90
2018-04-18T09:22:04.405Z,19.00
2018-04-18T09:24:31.936Z,19.00
2018-04-18T09:26:59.622Z,19.00
2018-04-18T09:29:27.145Z,19.00
2018-04-18T09:31:54.654Z,19.00
2018-04-18T09:34:22.279Z,18.90
2018-04-18T09:36:49.783Z,19.00
2018-04-18T09:39:18.321Z,19.20
2018-04-18T09:41:45.906Z,19.20
2018-04-18T09:44:13.451Z,19.30
2018-04-18T09:46:40.947Z,19.40
2018-04-18T09:49:08.458Z,19.50
2018-04-18T09:51:36.563Z,19.30
2018-04-18T09:54:04.107Z,19.40
2018-04-18T09:56:31.626Z,19.40
2018-04-18T09:58:59.327Z,19.50
2018-04-18T10:01:32.526Z,19.50
2018-04-18T10:04:05.783Z,19.60
2018-04-18T10:06:33.362Z,19.50
2018-04-18T10:09:00.897Z,19.50
2018-04-18T10:11:28.534Z,19.50
2018-04-18T10:13:56.051Z,19.50
2018-04-18T10:16:23.790Z,19.60
2018-04-18T10:18:51.283Z,19.90
2018-04-18T10:21:19.102Z,19.90
2018-04-18T10:23:46.608Z,19.90
2018-04-18T10:26:14.115Z,19.80
2018-04-18T10:28:41.723Z,19.80
2018-04-18T10:31:09.257Z,19.70
2018-04-18T10:33:36.929Z,19.80
2018-04-18T10:36:04.457Z,20.00
2018-04-18T10:38:32.099Z,20.10
2018-04-18T10:41:00.368Z,20.20
2018-04-18T10:43:28.630Z,20.20
2018-04-18T10:45:56.263Z,20.20
2018-04-18T10:48:23.769Z,20.10
2018-04-18T10:50:51.592Z,20.00
2018-04-18T10:53:19.319Z,20.00
2018-04-18T10:55:46.818Z,19.90
2018-04-18T10:58:15.866Z,19.90
2018-04-18T11:00:43.377Z,20.00
2018-04-18T11:03:10.879Z,20.00
2018-04-18T11:05:38.389Z,20.10
2018-04-18T11:08:06.842Z,20.40
2018-04-18T11:10:34.354Z,20.30
2018-04-18T11:13:02.040Z,20.50
2018-04-18T11:15:29.657Z,20.60
2018-04-18T11:17:57.155Z,20.50
2018-04-18T11:20:24.734Z,20.50
2018-04-18T11:22:52.494Z,20.50
2018-04-18T11:25:20.010Z,20.40
2018-04-18T11:27:47.525Z,20.50
2018-04-18T11:30:15.089Z,20.40
2018-04-18T11:32:42.609Z,20.40
2018-04-18T11:35:10.402Z,20.40
2018-04-18T11:37:38.304Z,20.70
2018-04-18T11:40:05.810Z,20.70
2018-04-18T11:42:33.381Z,20.80
2018-04-18T11:45:00.903Z,20.80
2018-04-18T11:47:28.604Z,20.90
2018-04-18T11:49:56.129Z,21.00
2018-04-18T11:52:23.632Z,20.90
2018-04-18T11:54:51.259Z,21.00
2018-04-18T11:57:19.052Z,20.90
2018-04-18T11:59:46.555Z,21.00
2018-04-18T12:02:14.115Z,20.90
2018-04-18T12:04:41.627Z,20.90
2018-04-18T12:07:09.144Z,20.90
2018-04-18T12:09:36.651Z,21.10
2018-04-18T12:12:05.662Z,20.90
2018-04-18T12:14:33.376Z,20.90
2018-04-18T12:17:00.889Z,20.90
2018-04-18T12:19:28.622Z,21.20
2018-04-18T12:21:56.372Z,21.30
2018-04-18T12:24:23.883Z,21.40
2018-04-18T12:26:51.397Z,21.20
2018-04-18T12:29:19.606Z,21.20
2018-04-18T12:31:47.912Z,21.40
2018-04-18T12:34:15.498Z,21.40
2018-04-18T12:36:43.296Z,21.40
2018-04-18T12:39:11.262Z,21.50
2018-04-18T12:41:38.774Z,21.60
2018-04-18T12:44:06.285Z,21.50
2018-04-18T12:46:34.002Z,21.50
2018-04-18T12:49:01.532Z,21.60
2018-04-18T12:51:29.206Z,21.60
2018-04-18T12:53:56.710Z,21.50
2018-04-18T12:56:24.214Z,21.50
2018-04-18T12:58:51.908Z,21.30
2018-04-18T13:01:19.432Z,21.40
2018-04-18T13:03:47.122Z,21.60
2018-04-18T13:06:14.883Z,21.50
2018-04-18T13:08:42.389Z,21.70
2018-04-18T13:11:09.933Z,21.90
2018-04-18T13:13:37.438Z,21.80
2018-04-18T13:16:04.946Z,22.20
2018-04-18T13:18:32.457Z,22.20
2018-04-18T13:20:59.965Z,22.20
2018-04-18T13:23:27.515Z,22.20
2018-04-18T13:25:55.057Z,22.20
2018-04-18T13:28:22.622Z,22.30
2018-04-18T13:30:50.247Z,22.10
2018-04-18T13:33:17.805Z,22.20
2018-04-18T13:35:45.328Z,22.10
2018-04-18T13:38:12.842Z,22.10
2018-04-18T13:40:40.350Z,22.00
2018-04-18T13:43:08.807Z,22.10
2018-04-18T13:45:36.338Z,22.10
2018-04-18T13:48:04.247Z,22.30
2018-04-18T13:50:32.792Z,22.50
2018-04-18T13:53:00.312Z,22.40
2018-04-18T13:55:27.812Z,22.60
2018-04-18T13:57:55.326Z,22.60
2018-04-18T14:00:22.843Z,22.50
2018-04-18T14:02:50.354Z,22.60
2018-04-18T14:05:17.875Z,22.80
2018-04-18T14:07:45.609Z,22.80
2018-04-18T14:10:14.625Z,23.20
2018-04-18T14:12:43.155Z,23.20
2018-04-18T14:15:10.710Z,23.40
2018-04-18T14:17:38.198Z,23.50
2018-04-18T14:20:05.745Z,23.50
2018-04-18T14:22:33.269Z,23.70
2018-04-18T14:25:00.771Z,23.60
2018-04-18T14:27:28.300Z,23.80
2018-04-18T14:29:56.086Z,23.40
2018-04-18T14:32:23.856Z,24.00
2018-04-18T14:34:51.371Z,23.90
2018-04-18T14:37:19.090Z,23.30
2018-04-18T14:39:46.591Z,23.60
2018-04-18T14:42:14.175Z,23.70
2018-04-18T14:44:41.738Z,23.70
2018-04-18T14:47:09.568Z,23.80
2018-04-18T14:49:37.058Z,24.00
2018-04-18T14:52:04.565Z,24.30
2018-04-18T14:54:32.836Z,24.40
2018-04-18T14:57:00.350Z,24.40
2018-04-18T14:59:28.027Z,24.40
2018-04-18T15:01:56.249Z,24.70
2018-04-18T15:04:23.756Z,24.80
2018-04-18T15:06:51.286Z,25.10
2018-04-18T15:09:18.810Z,24.80
2018-04-18T15:11:46.560Z,24.20
2018-04-18T15:14:14.315Z,24.40
2018-04-18T15:16:41.829Z,24.50
2018-04-18T15:19:09.330Z,24.40
2018-04-18T15:21:36.948Z,24.00
2018-04-18T15:24:04.474Z,24.00
2018-04-18T15:26:32.194Z,24.40
2018-04-18T15:28:59.983Z,24.60
2018-04-18T15:31:27.486Z,24.80
2018-04-18T15:33:55.423Z,24.70
2018-04-18T15:36:23.015Z,24.70
2018-04-18T15:38:50.537Z,24.90
2018-04-18T15:41:18.801Z,24.90
2018-04-18T15:43:46.319Z,24.90
2018-04-18T15:46:15.079Z,24.90
2018-04-18T15:48:45.524Z,24.50
2018-04-18T15:51:13.291Z,24.50
2018-04-18T15:53:40.946Z,24.60
2018-04-18T15:56:08.472Z,24.90
2018-04-18T15:58:36.233Z,25.20
2018-04-18T16:01:03.685Z,25.90
2018-04-18T16:03:31.391Z,26.70
2018-04-18T16:05:58.897Z,27.10
2018-04-18T16:08:26.427Z,27.30
2018-04-18T16:10:54.055Z,27.50
2018-04-18T16:13:21.865Z,27.70
2018-04-18T16:15:49.374Z,27.60
2018-04-18T16:18:16.920Z,27.60
2018-04-18T16:20:44.533Z,26.90
2018-04-18T16:23:12.030Z,27.00
2018-04-18T16:25:39.544Z,26.50
2018-04-18T16:28:07.198Z,25.40
2018-04-18T16:30:42.621Z,24.90
2018-04-18T16:33:10.143Z,24.20
2018-04-18T16:35:38.486Z,23.60
2018-04-18T16:38:06.012Z,23.50
2018-04-18T16:40:33.676Z,23.40
2018-04-18T16:43:01.712Z,23.30
2018-04-18T16:45:30.388Z,23.30
2018-04-18T16:47:57.916Z,23.20
2018-04-18T16:50:25.427Z,23.10
2018-04-18T16:52:52.950Z,23.10
2018-04-18T16:55:20.458Z,23.10
2018-04-18T16:57:49.177Z,22.90
2018-04-18T17:00:16.791Z,22.90
2018-04-18T17:02:44.298Z,23.00
2018-04-18T17:05:11.909Z,23.00
2018-04-18T17:07:39.721Z,22.80
2018-04-18T17:10:07.233Z,22.70
2018-04-18T17:12:34.737Z,22.60
2018-04-18T17:15:02.242Z,22.70
2018-04-18T17:17:30.517Z,22.60
2018-04-18T17:19:58.038Z,22.60
2018-04-18T17:22:25.690Z,22.50
2018-04-18T17:24:53.206Z,22.40
2018-04-18T17:27:21.499Z,22.30
2018-04-18T17:29:49.010Z,22.40
2018-04-18T17:32:16.535Z,22.40
2018-04-18T17:34:44.045Z,22.50
2018-04-18T17:37:11.562Z,22.30
2018-04-18T17:39:39.083Z,22.30
2018-04-18T17:42:07.931Z,22.30
2018-04-18T17:44:35.419Z,22.20
2018-04-18T17:47:02.974Z,22.20
2018-04-18T17:49:30.487Z,22.10
2018-04-18T17:51:58.736Z,22.10
2018-04-18T17:54:26.464Z,22.00
2018-04-18T17:56:54.092Z,22.00
2018-04-18T17:59:23.106Z,21.70
2018-04-18T18:01:50.619Z,21.70
2018-04-18T18:04:18.497Z,21.60
2018-04-18T18:06:46.042Z,21.60
2018-04-18T18:09:13.560Z,21.60
2018-04-18T18:11:41.056Z,21.50
2018-04-18T18:14:09.560Z,21.50
2018-04-18T18:16:37.077Z,21.40
2018-04-18T18:19:04.611Z,21.50
2018-04-18T18:21:32.326Z,21.20
2018-04-18T18:24:00.096Z,21.10
2018-04-18T18:26:28.063Z,21.20
2018-04-18T18:28:55.646Z,21.20
2018-04-18T18:31:23.153Z,21.20
2018-04-18T18:33:50.828Z,21.10
2018-04-18T18:36:18.334Z,21.00
2018-04-18T18:38:45.878Z,20.90
2018-04-18T18:41:13.518Z,20.80
2018-04-18T18:43:41.934Z,20.70
2018-04-18T18:46:09.951Z,20.60
2018-04-18T18:48:37.452Z,20.60
2018-04-18T18:51:04.953Z,20.50
2018-04-18T18:53:32.485Z,20.40
2018-04-18T18:56:00.061Z,20.40
2018-04-18T18:58:27.567Z,20.40
2018-04-18T19:00:56.711Z,20.20
2018-04-18T19:03:24.231Z,20.20
2018-04-18T19:05:51.767Z,20.30
2018-04-18T19:08:19.284Z,20.30
2018-04-18T19:10:46.909Z,20.30
2018-04-18T19:13:14.755Z,20.30
2018-04-18T19:15:43.146Z,20.30
2018-04-18T19:18:11.181Z,20.20
2018-04-18T19:20:38.703Z,20.20
2018-04-18T19:23:06.246Z,20.20
2018-04-18T19:25:34.528Z,19.90
2018-04-18T19:28:02.058Z,19.90
2018-04-18T19:30:29.575Z,19.80
2018-04-18T19:32:57.090Z,19.80
2018-04-18T19:35:24.626Z,19.70
2018-04-18T19:37:53.766Z,19.70
2018-04-18T19:40:22.047Z,19.70
2018-04-18T19:42:49.738Z,19.70
2018-04-18T19:45:18.509Z,19.60
2018-04-18T19:47:46.179Z,19.50
2018-04-18T19:50:14.535Z,19.50
2018-04-18T19:52:42.041Z,19.40
2018-04-18T19:55:10.293Z,19.30
2018-04-18T19:57:37.799Z,19.30
2018-04-18T20:00:05.321Z,19.30
2018-04-18T20:02:33.749Z,19.30
2018-04-18T20:05:01.260Z,19.30
2018-04-18T20:07:28.829Z,19.20
2018-04-18T20:09:56.321Z,19.10
2018-04-18T20:12:24.150Z,19.00
2018-04-18T20:14:51.663Z,19.00
2018-04-18T20:17:19.377Z,18.90
2018-04-18T20:19:47.139Z,19.00
2018-04-18T20:22:16.246Z,18.90
2018-04-18T20:24:43.882Z,18.90
2018-04-18T20:27:11.413Z,18.90
2018-04-18T20:29:38.911Z,18.80
2018-04-18T20:32:06.555Z,18.80
2018-04-18T20:34:34.054Z,18.90
2018-04-18T20:37:01.770Z,19.00
2018-04-18T20:39:29.270Z,19.10
2018-04-18T20:41:57.014Z,19.20
2018-04-18T20:44:24.538Z,19.10
2018-04-18T20:46:52.809Z,19.00
2018-04-18T20:49:20.368Z,19.10
2018-04-18T20:51:47.877Z,19.20
2018-04-18T20:54:15.394Z,19.20
2018-04-18T20:56:42.939Z,19.00
2018-04-18T20:59:10.554Z,18.80
2018-04-18T21:01:38.829Z,19.00
2018-04-18T21:04:06.333Z,19.00
2018-04-18T21:06:34.033Z,18.80
2018-04-18T21:09:01.549Z,18.60
2018-04-18T21:11:29.214Z,18.50
2018-04-18T21:13:56.704Z,18.40
2018-04-18T21:16:24.464Z,18.30
2018-04-18T21:18:51.970Z,18.40
2018-04-18T21:21:19.715Z,18.40
2018-04-18T21:23:47.451Z,18.40
2018-04-18T21:26:14.950Z,18.30
2018-04-18T21:28:42.466Z,18.30
2018-04-18T21:31:09.977Z,18.20
2018-04-18T21:33:38.300Z,18.10
2018-04-18T21:36:06.603Z,17.90
2018-04-18T21:38:34.222Z,17.90
2018-04-18T21:41:01.732Z,17.90
2018-04-18T21:43:29.565Z,17.80
2018-04-18T21:45:57.963Z,17.80
2018-04-18T21:48:25.520Z,17.80
2018-04-18T21:50:53.059Z,17.60
2018-04-18T21:53:20.603Z,17.60
2018-04-18T21:55:48.335Z,17.50
2018-04-18T21:58:15.842Z,17.50
2018-04-18T22:00:43.361Z,17.50
2018-04-18T22:03:11.140Z,17.40
2018-04-18T22:05:38.787Z,17.40
2018-04-18T22:08:06.301Z,17.30
2018-04-18T22:10:35.562Z,17.20
2018-04-18T22:13:03.066Z,17.20
2018-04-18T22:15:30.764Z,17.20
2018-04-18T22:17:58.867Z,17.20
2018-04-18T22:20:26.634Z,17.10
2018-04-18T22:22:54.387Z,17.10
2018-04-18T22:25:22.127Z,17.10
2018-04-18T22:27:49.631Z,17.10
2018-04-18T22:30:17.151Z,17.00
2018-04-18T22:32:44.852Z,17.00
2018-04-18T22:35:12.373Z,17.00
2018-04-18T22:37:39.990Z,16.90
2018-04-18T22:40:07.510Z,16.90
2018-04-18T22:42:35.262Z,16.90
2018-04-18T22:45:02.870Z,16.90
2018-04-18T22:47:31.138Z,16.90
2018-04-18T22:49:58.833Z,16.90
2018-04-18T22:52:26.635Z,16.90
2018-04-18T22:54:54.156Z,16.90
2018-04-18T22:57:21.818Z,16.90
2018-04-18T22:59:49.605Z,16.80
2018-04-18T23:02:17.110Z,16.70
2018-04-18T23:04:44.801Z,16.60
2018-04-18T23:07:12.590Z,16.60
2018-04-18T23:09:40.360Z,16.60
2018-04-18T23:12:07.878Z,16.60
2018-04-18T23:14:35.551Z,16.60
2018-04-18T23:17:03.065Z,16.50
2018-04-18T23:19:30.574Z,16.50
2018-04-18T23:21:58.226Z,16.50
2018-04-18T23:24:25.729Z,16.50
2018-04-18T23:26:53.468Z,16.50
2018-04-18T23:29:20.969Z,16.50
2018-04-18T23:31:48.694Z,16.40
2018-04-18T23:34:16.262Z,16.40
2018-04-18T23:36:43.718Z,16.50
2018-04-18T23:39:11.238Z,16.30
2018-04-18T23:41:38.798Z,16.20
2018-04-18T23:44:06.436Z,16.20
2018-04-18T23:46:34.972Z,16.00
2018-04-18T23:49:02.499Z,16.00
2018-04-18T23:51:30.470Z,16.00
2018-04-18T23:53:57.979Z,16.00
2018-04-18T23:56:25.716Z,16.00
2018-04-18T23:58:53.221Z,16.00
